Time;durP1;ratioP1;P1;durP2;ratioP2;P2;SDS_P1;SDS_P2;PMS_P1;PMS_P2;Temp;Humidity;BMP_temperature;BMP_pressure;BME280_temperature;BME280_humidity;BME280_pressure;Samples;Min_cycle;Max_cycle;Signal;HPM_P1;HPM_P2
2023/05/07 04:31:31;;;;;;;8.32;3.58;;;17.00;78.80;;;;;;5490919;23;20771;-90
2023/05/07 04:34:04;;;;;;;6.00;3.10;;;17.00;78.40;;;;;;4899304;29;20159;-89
2023/05/07 04:37:00;;;;;;;11.15;3.67;;;17.00;78.40;;;;;;4883477;29;20036;-90
2023/05/07 04:39:38;;;;;;;;;;;;;;;;;;;;;
2023/05/07 04:42:07;;;;;;;8.63;4.32;;;17.00;78.70;;;;;;4901205;29;20135;-91
2023/05/07 04:44:36;;;;;;;6.55;3.65;;;17.00;78.60;;;;;;4882073;29;20460;-89
2023/05/07 04:47:02;;;;;;;6.03;3.60;;;17.00;78.30;;;;;;4882167;29;20037;-90
2023/05/07 04:49:28;;;;;;;5.85;3.15;;;17.00;78.30;;;;;;4866320;29;20041;-90
2023/05/07 04:51:56;;;;;;;7.47;3.55;;;17.00;78.70;;;;;;4884234;29;20040;-89
2023/05/07 04:54:25;;;;;;;5.07;3.22;;;17.00;78.90;;;;;;4899742;29;20112;-90
2023/05/07 04:57:00;;;;;;;7.32;3.22;;;17.00;78.60;;;;;;4865751;29;20037;-90
2023/05/07 04:59:26;;;;;;;10.35;3.95;;;17.00;78.30;;;;;;4873510;29;20029;-89
2023/05/07 05:01:57;;;;;;;6.97;3.45;;;17.00;78.50;;;;;;4896763;29;20031;-89
2023/05/07 05:04:28;;;;;;;6.78;3.35;;;17.00;78.40;;;;;;4880927;29;20130;-89
2023/05/07 05:06:58;;;;;;;7.10;3.75;;;17.00;78.40;;;;;;4902389;29;20021;-91
2023/05/07 05:09:40;;;;;;;10.68;3.67;;;17.00;78.40;;;;;;4885660;29;20488;-91
2023/05/07 05:12:24;;;;;;;11.52;3.28;;;17.00;78.60;;;;;;4870076;29;20048;-90
2023/05/07 05:15:06;;;;;;;5.53;3.22;;;17.00;78.70;;;;;;4867959;29;20068;-90
2023/05/07 05:17:36;;;;;;;9.30;4.05;;;17.00;78.30;;;;;;4871087;29;20033;-90
2023/05/07 05:20:02;;;;;;;;;;;17.00;78.20;;;;;;4887100;29;20038;-89
2023/05/07 05:23:05;;;;;;;10.30;3.67;;;17.00;78.30;;;;;;4883020;29;19911;-90
2023/05/07 05:25:50;;;;;;;5.57;3.20;;;17.00;78.10;;;;;;4883433;29;20053;-91
2023/05/07 05:28:23;;;;;;;9.35;3.95;;;17.10;78.10;;;;;;4886826;29;20552;-91
2023/05/07 05:31:16;;;;;;;10.27;3.63;;;17.00;78.00;;;;;;4885939;29;20074;-90
2023/05/07 05:34:04;;;;;;;7.53;3.90;;;17.00;78.10;;;;;;4885343;29;20040;-91
2023/05/07 05:40:00;;;;;;;7.90;3.60;;;17.10;78.10;;;;;;4889053;29;20037;-91
2023/05/07 05:46:18;;;;;;;;;;;;;;;;;;;;;
2023/05/07 05:48:59;;;;;;;;;;;;;;;;;;;;;
2023/05/07 05:51:28;;;;;;;8.40;3.83;;;17.20;77.80;;;;;;4884272;29;20105;-90
2023/05/07 05:54:29;;;;;;;;;;;;;;;;;;;;;
2023/05/07 05:57:10;;;;;;;;;;;;;;;;;;;;;
2023/05/07 05:59:54;;;;;;;8.07;3.47;;;17.20;78.10;;;;;;4876829;29;20089;-92
2023/05/07 06:02:32;;;;;;;;;;;;;;;;;;;;;
2023/05/07 06:04:58;;;;;;;9.73;4.15;;;17.30;77.80;;;;;;4882614;29;20115;-84
2023/05/07 06:07:24;;;;;;;11.18;4.05;;;17.40;77.30;;;;;;4882366;29;20068;-86
2023/05/07 06:09:49;;;;;;;7.50;3.78;;;17.50;77.50;;;;;;4883196;29;20041;-87
2023/05/07 06:12:15;;;;;;;7.00;3.72;;;17.50;77.40;;;;;;4884526;29;20538;-84
2023/05/07 06:14:43;;;;;;;10.38;4.53;;;17.50;77.80;;;;;;4884203;29;20123;-91
2023/05/07 06:17:09;;;;;;;6.70;3.95;;;17.50;77.50;;;;;;4883388;29;20032;-84
2023/05/07 06:19:34;;;;;;;9.55;3.90;;;17.50;77.40;;;;;;4900466;29;20032;-85
2023/05/07 06:22:01;;;;;;;6.95;3.60;;;17.50;77.50;;;;;;4876710;29;20121;-86
2023/05/07 06:24:27;;;;;;;7.45;4.07;;;17.50;77.40;;;;;;4882356;29;20161;-83
2023/05/07 06:26:52;;;;;;;8.07;4.63;;;17.40;77.70;;;;;;4887817;29;20088;-87
2023/05/07 06:29:18;;;;;;;6.30;4.13;;;17.40;77.90;;;;;;4880367;29;20036;-90
2023/05/07 06:31:44;;;;;;;4.30;2.80;;;17.40;77.80;;;;;;4880160;29;20059;-82
2023/05/07 06:34:10;;;;;;;3.00;2.17;;;17.40;77.60;;;;;;4880766;29;20028;-82
2023/05/07 06:36:36;;;;;;;4.30;2.38;;;17.30;78.00;;;;;;4882989;29;20029;-82
2023/05/07 06:39:01;;;;;;;4.15;2.30;;;17.30;78.00;;;;;;4883833;29;20025;-83
2023/05/07 06:41:27;;;;;;;3.85;1.90;;;17.30;78.10;;;;;;4881785;29;20407;-81
2023/05/07 06:43:52;;;;;;;3.65;2.20;;;17.30;78.30;;;;;;4888183;29;20029;-82
2023/05/07 06:46:44;;;;;;;3.63;2.20;;;17.30;78.50;;;;;;4899757;29;20433;-82
2023/05/07 06:49:10;;;;;;;4.25;2.40;;;17.30;78.60;;;;;;4880640;29;20065;-81
2023/05/07 06:51:36;;;;;;;5.22;2.10;;;17.30;78.10;;;;;;4900100;29;20043;-80
2023/05/07 06:54:04;;;;;;;4.65;2.53;;;17.40;78.30;;;;;;4881524;29;20120;-81
2023/05/07 06:56:30;;;;;;;5.93;3.53;;;17.30;78.00;;;;;;4882867;29;20459;-78
2023/05/07 06:58:58;;;;;;;5.45;3.10;;;17.30;78.00;;;;;;4898895;29;20115;-79
2023/05/07 07:01:23;;;;;;;6.05;3.25;;;17.40;77.90;;;;;;4892297;29;20044;-77
2023/05/07 07:03:49;;;;;;;8.00;4.13;;;17.40;78.00;;;;;;4897758;29;20124;-77
2023/05/07 07:06:14;;;;;;;7.82;3.80;;;17.40;77.90;;;;;;4883799;29;20161;-76
2023/05/07 07:08:40;;;;;;;10.45;4.35;;;17.50;78.20;;;;;;4886096;29;20076;-78
2023/05/07 07:11:08;;;;;;;10.88;4.82;;;17.50;78.00;;;;;;4901971;29;20084;-78
2023/05/07 07:13:34;;;;;;;9.63;3.83;;;17.50;78.20;;;;;;4902778;29;20491;-80
2023/05/07 07:16:00;;;;;;;10.13;4.68;;;17.60;77.90;;;;;;4904410;29;20028;-80
2023/05/07 07:18:26;;;;;;;8.65;4.53;;;17.60;77.80;;;;;;4907337;29;20035;-77
2023/05/07 07:20:51;;;;;;;9.35;4.68;;;17.70;77.90;;;;;;4904433;29;20037;-77
2023/05/07 07:23:17;;;;;;;8.15;4.85;;;17.80;77.90;;;;;;4902274;29;20040;-78
2023/05/07 07:25:43;;;;;;;8.50;4.95;;;17.80;77.40;;;;;;4900346;29;20080;-78
2023/05/07 07:28:08;;;;;;;11.02;4.88;;;17.80;77.20;;;;;;4886832;29;20043;-78
2023/05/07 07:30:34;;;;;;;10.32;5.28;;;17.80;77.20;;;;;;4890604;29;20067;-78
2023/05/07 07:33:02;;;;;;;10.77;4.60;;;17.80;76.90;;;;;;4886343;29;20029;-78
2023/05/07 07:35:34;;;;;;;11.45;5.45;;;17.90;77.40;;;;;;4903032;29;20040;-78
2023/05/07 07:38:01;;;;;;;11.55;6.18;;;17.80;77.20;;;;;;4883779;29;20040;-77
2023/05/07 07:40:27;;;;;;;11.48;6.28;;;17.90;77.00;;;;;;4885192;29;20029;-77
2023/05/07 07:42:53;;;;;;;14.18;6.55;;;18.00;77.10;;;;;;4886665;29;20036;-78
2023/05/07 07:45:19;;;;;;;12.70;6.13;;;18.10;76.70;;;;;;4886326;29;20016;-78
2023/05/07 07:47:45;;;;;;;9.52;5.45;;;18.30;76.60;;;;;;4886043;29;20517;-77
2023/05/07 07:50:11;;;;;;;11.32;5.88;;;18.40;76.00;;;;;;4885469;29;20403;-77
2023/05/07 07:52:37;;;;;;;8.70;5.15;;;18.40;75.80;;;;;;4902765;29;20036;-76
2023/05/07 07:55:03;;;;;;;11.48;5.93;;;18.50;75.80;;;;;;4902178;29;20033;-79
2023/05/07 07:57:28;;;;;;;9.70;4.35;;;18.50;75.60;;;;;;4903334;29;20041;-77
2023/05/07 07:59:54;;;;;;;10.25;4.97;;;18.60;75.60;;;;;;4884062;29;20033;-77
2023/05/07 08:02:20;;;;;;;10.60;4.70;;;18.80;75.30;;;;;;4884645;29;20112;-77
2023/05/07 08:04:46;;;;;;;9.88;4.30;;;18.90;75.00;;;;;;4895161;29;20055;-78
2023/05/07 08:07:12;;;;;;;8.73;5.00;;;18.80;74.80;;;;;;4888491;29;20688;-77
2023/05/07 08:09:38;;;;;;;8.13;5.32;;;18.80;75.00;;;;;;4884272;29;20040;-85
2023/05/07 08:12:07;;;;;;;11.52;4.43;;;18.80;75.00;;;;;;4888471;29;20062;-78
2023/05/07 08:14:34;;;;;;;9.00;4.43;;;18.80;75.20;;;;;;4884205;29;20029;-77
2023/05/07 08:17:00;;;;;;;7.95;4.18;;;18.90;74.60;;;;;;4875278;29;20041;-78
2023/05/07 08:19:26;;;;;;;8.60;3.85;;;19.10;74.10;;;;;;4885338;29;20050;-77
2023/05/07 08:21:51;;;;;;;9.00;3.90;;;19.30;73.60;;;;;;4893819;29;20044;-77
2023/05/07 08:24:18;;;;;;;6.88;3.70;;;19.20;73.50;;;;;;4884038;29;20484;-77
2023/05/07 08:26:44;;;;;;;7.07;3.80;;;19.10;74.20;;;;;;4882958;29;20111;-77
2023/05/07 08:29:11;;;;;;;9.25;4.13;;;18.90;74.50;;;;;;4902521;29;20932;-77
2023/05/07 08:31:38;;;;;;;9.00;4.40;;;18.90;74.60;;;;;;4892259;29;20080;-77
2023/05/07 08:34:08;;;;;;;9.20;4.47;;;19.00;74.50;;;;;;4893546;29;20111;-77
2023/05/07 08:36:34;;;;;;;;;;;19.10;74.10;;;;;;4901274;29;20400;-77
2023/05/07 08:39:00;;;;;;;6.13;3.10;;;19.20;73.50;;;;;;4901370;29;19942;-77
2023/05/07 08:41:26;;;;;;;5.15;3.00;;;19.50;72.80;;;;;;4883172;29;20042;-77
2023/05/07 08:43:53;;;;;;;7.45;2.75;;;19.80;72.00;;;;;;4902306;29;20029;-78
2023/05/07 08:46:20;;;;;;;5.78;2.92;;;20.30;70.80;;;;;;4892457;29;20025;-77
2023/05/07 08:48:50;;;;;;;5.03;3.03;;;21.80;68.60;;;;;;4882055;29;20064;-78
2023/05/07 08:51:18;;;;;;;6.05;2.42;;;24.00;63.50;;;;;;4866930;29;20033;-77
2023/05/07 08:53:45;;;;;;;4.55;2.20;;;26.10;57.50;;;;;;4892772;29;20028;-77
2023/05/07 08:56:11;;;;;;;4.65;2.33;;;25.60;56.50;;;;;;4899354;29;20053;-77
2023/05/07 08:58:37;;;;;;;4.07;2.05;;;25.50;55.60;;;;;;4899183;29;20025;-77
2023/05/07 09:01:20;;;;;;;3.38;2.22;;;24.60;57.40;;;;;;4883994;29;20388;-77
2023/05/07 09:03:47;;;;;;;5.35;2.42;;;23.70;59.10;;;;;;4900842;29;20064;-77
2023/05/07 09:06:12;;;;;;;3.35;2.22;;;23.20;60.30;;;;;;4900146;29;20037;-82
2023/05/07 09:08:38;;;;;;;4.43;2.47;;;22.70;61.40;;;;;;4899266;29;20463;-77
2023/05/07 09:11:04;;;;;;;4.50;2.70;;;22.30;62.80;;;;;;4891422;29;20037;-76
2023/05/07 09:13:30;;;;;;;4.18;2.40;;;21.90;64.00;;;;;;4883221;29;20101;-76
2023/05/07 09:15:56;;;;;;;4.05;2.30;;;21.60;64.90;;;;;;4883161;29;20870;-81
2023/05/07 09:18:23;;;;;;;4.05;2.28;;;21.30;65.50;;;;;;4884479;29;20560;-81
2023/05/07 09:20:48;;;;;;;4.50;2.70;;;21.20;65.80;;;;;;4900627;29;20530;-86
2023/05/07 09:23:14;;;;;;;4.45;2.03;;;21.10;66.20;;;;;;4884618;29;20024;-86
2023/05/07 09:25:40;;;;;;;3.92;2.05;;;21.40;65.50;;;;;;4884010;29;20753;-86
2023/05/07 09:28:07;;;;;;;3.90;2.28;;;21.70;65.50;;;;;;4893186;29;20465;-87
2023/05/07 09:30:33;;;;;;;3.67;2.03;;;21.80;64.20;;;;;;4864524;29;20055;-87
2023/05/07 09:33:00;;;;;;;3.10;1.90;;;21.60;64.10;;;;;;4866323;29;20036;-86
2023/05/07 09:35:29;;;;;;;6.28;2.17;;;21.40;64.70;;;;;;4865436;29;20033;-86
2023/05/07 09:37:59;;;;;;;3.78;1.85;;;21.30;64.90;;;;;;4864919;29;20133;-86
2023/05/07 09:40:27;;;;;;;3.13;1.85;;;21.30;65.40;;;;;;4882745;29;20021;-86
2023/05/07 09:42:53;;;;;;;3.33;2.20;;;21.50;64.60;;;;;;4878694;29;20033;-86
2023/05/07 09:45:26;;;;;;;3.03;1.80;;;21.50;64.00;;;;;;4882742;29;20025;-87
2023/05/07 09:47:55;;;;;;;3.85;1.80;;;21.50;64.90;;;;;;4881529;29;20037;-86
2023/05/07 09:50:27;;;;;;;2.55;1.40;;;21.30;65.00;;;;;;4865933;29;20064;-87
2023/05/07 09:52:55;;;;;;;2.92;1.70;;;21.30;65.00;;;;;;4882405;29;20049;-86
2023/05/07 09:55:21;;;;;;;2.20;1.52;;;21.30;65.10;;;;;;4882563;29;20036;-86
2023/05/07 09:57:49;;;;;;;3.40;1.80;;;21.20;65.60;;;;;;4882334;29;20061;-87
2023/05/07 10:00:17;;;;;;;2.90;1.88;;;21.20;65.30;;;;;;4865594;29;20113;-87
2023/05/07 10:02:48;;;;;;;5.45;2.15;;;21.30;65.70;;;;;;4882352;29;20025;-87
2023/05/07 10:05:14;;;;;;;3.97;1.80;;;21.50;65.20;;;;;;4881083;29;20029;-88
2023/05/07 10:07:41;;;;;;;3.35;1.50;;;21.60;65.00;;;;;;4865764;29;20504;-87
2023/05/07 10:10:07;;;;;;;4.50;1.90;;;21.50;64.80;;;;;;4884068;29;20104;-87
2023/05/07 10:12:38;;;;;;;3.80;2.30;;;21.40;64.90;;;;;;4883931;29;20028;-86
2023/05/07 10:15:08;;;;;;;2.72;1.95;;;21.30;65.50;;;;;;4883489;29;20192;-86
2023/05/07 10:17:39;;;;;;;4.43;1.98;;;21.00;65.60;;;;;;4878808;29;20546;-87
2023/05/07 10:20:06;;;;;;;4.18;1.88;;;20.80;66.20;;;;;;4874912;29;20040;-87
2023/05/07 10:22:43;;;;;;;3.05;1.75;;;20.70;66.10;;;;;;4883625;29;20958;-87
2023/05/07 10:25:31;;;;;;;3.70;1.83;;;20.60;66.90;;;;;;4883771;29;20029;-87
2023/05/07 10:28:02;;;;;;;2.80;1.23;;;20.40;66.90;;;;;;4900741;29;20039;-87
2023/05/07 10:30:33;;;;;;;2.92;1.55;;;20.40;67.30;;;;;;4900510;29;20084;-87
2023/05/07 10:33:05;;;;;;;4.50;2.00;;;20.40;67.50;;;;;;4883204;29;20044;-87
2023/05/07 10:35:35;;;;;;;3.20;1.90;;;20.40;66.90;;;;;;4884161;29;20029;-87
2023/05/07 10:38:02;;;;;;;3.20;2.13;;;20.40;67.00;;;;;;4900347;29;20124;-86
2023/05/07 10:40:27;;;;;;;2.65;1.83;;;20.50;66.90;;;;;;4901039;29;20564;-87
2023/05/07 10:43:00;;;;;;;3.80;2.20;;;20.50;67.20;;;;;;4900614;29;20060;-87
2023/05/07 10:45:27;;;;;;;3.85;1.88;;;20.50;66.80;;;;;;4897155;29;20093;-87
2023/05/07 10:48:11;;;;;;;4.43;2.35;;;20.50;66.60;;;;;;4881773;29;20933;-88
2023/05/07 10:50:38;;;;;;;3.92;2.58;;;20.70;66.80;;;;;;4880949;29;20029;-87
2023/05/07 10:53:18;;;;;;;4.68;2.70;;;20.80;66.50;;;;;;4881040;29;20092;-87
2023/05/07 10:55:49;;;;;;;3.97;2.58;;;20.80;66.80;;;;;;4881874;29;20433;-87
2023/05/07 10:58:25;;;;;;;4.07;2.55;;;20.80;65.90;;;;;;4881633;29;20029;-86
2023/05/07 11:00:56;;;;;;;5.20;2.50;;;20.80;65.00;;;;;;4864895;29;20033;-86
2023/05/07 11:03:22;;;;;;;4.07;2.10;;;20.80;65.80;;;;;;4888089;29;20020;-87
2023/05/07 11:06:11;;;;;;;4.05;2.30;;;21.00;65.60;;;;;;4883846;29;20110;-86
2023/05/07 11:09:03;;;;;;;4.43;2.20;;;21.20;64.70;;;;;;4883281;29;20032;-86
2023/05/07 11:11:45;;;;;;;4.03;2.00;;;21.50;63.60;;;;;;4896732;29;20041;-86
2023/05/07 11:14:11;;;;;;;3.22;1.73;;;21.80;63.00;;;;;;4877143;29;20120;-86
2023/05/07 11:16:39;;;;;;;4.00;1.95;;;22.10;62.10;;;;;;4881604;29;20097;-86
2023/05/07 11:19:05;;;;;;;4.30;2.13;;;22.30;61.70;;;;;;4877293;29;20173;-86
2023/05/07 11:21:35;;;;;;;4.32;2.70;;;22.30;61.70;;;;;;4887973;29;20056;-86
2023/05/07 11:24:02;;;;;;;4.38;2.75;;;22.10;62.00;;;;;;4879731;29;20029;-86
2023/05/07 11:26:30;;;;;;;4.57;2.45;;;22.00;62.10;;;;;;4864852;29;20037;-86
2023/05/07 11:28:57;;;;;;;5.10;2.30;;;22.00;62.00;;;;;;4865694;29;20039;-86
2023/05/07 11:31:25;;;;;;;4.53;2.53;;;22.10;61.70;;;;;;4881323;29;20057;-87
2023/05/07 11:33:52;;;;;;;4.65;2.25;;;22.20;60.70;;;;;;4873022;29;20038;-87
2023/05/07 11:36:19;;;;;;;6.22;3.35;;;22.10;60.80;;;;;;4883403;29;20028;-86
2023/05/07 11:38:45;;;;;;;4.00;2.33;;;22.10;60.60;;;;;;4879193;29;20033;-86
2023/05/07 11:41:10;;;;;;;5.53;2.50;;;22.00;60.00;;;;;;4881512;29;20100;-87
2023/05/07 11:43:36;;;;;;;4.95;2.20;;;22.10;60.40;;;;;;4881038;29;20033;-86
2023/05/07 11:46:10;;;;;;;5.22;2.30;;;22.10;60.10;;;;;;4880070;29;20029;-86
2023/05/07 11:48:36;;;;;;;4.20;2.22;;;22.20;60.30;;;;;;4881492;29;20392;-86
2023/05/07 11:51:04;;;;;;;6.00;1.65;;;22.30;60.40;;;;;;4881322;29;20147;-86
2023/05/07 11:53:38;;;;;;;3.03;1.92;;;22.30;59.30;;;;;;4867970;29;20037;-86
2023/05/07 11:56:11;;;;;;;3.60;2.13;;;22.30;59.60;;;;;;4884431;29;20527;-86
2023/05/07 11:58:37;;;;;;;5.80;2.42;;;22.50;59.70;;;;;;4884620;29;20089;-85
2023/05/07 12:01:03;;;;;;;5.63;2.03;;;22.60;59.30;;;;;;4884608;29;20029;-85
2023/05/07 12:03:29;;;;;;;5.68;2.45;;;22.70;59.30;;;;;;4889708;29;20658;-86
2023/05/07 12:05:55;;;;;;;7.05;2.75;;;22.80;59.30;;;;;;4886419;29;20032;-86
2023/05/07 12:08:21;;;;;;;6.88;2.95;;;22.80;58.90;;;;;;4902906;29;20024;-86
2023/05/07 12:10:49;;;;;;;7.00;3.05;;;22.80;58.80;;;;;;4882799;29;20124;-86
2023/05/07 12:13:22;;;;;;;8.25;3.30;;;22.80;59.10;;;;;;4882449;29;20029;-85
2023/05/07 12:15:52;;;;;;;5.60;3.40;;;22.70;59.20;;;;;;4884188;29;20513;-85
2023/05/07 12:18:18;;;;;;;5.97;3.25;;;22.70;58.90;;;;;;4899341;29;20024;-85
2023/05/07 12:20:44;;;;;;;6.05;2.58;;;22.70;58.70;;;;;;4897230;29;20076;-85
2023/05/07 12:23:10;;;;;;;11.00;2.10;;;22.80;59.50;;;;;;4867637;29;20393;-86
2023/05/07 12:25:37;;;;;;;21.35;4.53;;;22.70;58.80;;;;;;4884339;29;20033;-86
2023/05/07 12:28:06;;;;;;;6.63;2.45;;;22.60;58.70;;;;;;4884222;29;20029;-85
2023/05/07 12:30:37;;;;;;;8.68;2.97;;;22.70;59.30;;;;;;4884005;29;20053;-87
2023/05/07 12:33:02;;;;;;;5.22;2.00;;;22.80;58.40;;;;;;4885939;29;20033;-86
2023/05/07 12:35:35;;;;;;;4.93;2.20;;;22.80;58.50;;;;;;4902578;29;20043;-86
2023/05/07 12:38:04;;;;;;;6.65;3.13;;;22.90;58.40;;;;;;4888636;29;20108;-86
2023/05/07 12:40:41;;;;;;;7.53;2.72;;;22.90;57.80;;;;;;4867319;29;20037;-86
2023/05/07 12:43:07;;;;;;;3.97;1.80;;;23.00;57.40;;;;;;4883625;29;20065;-85
2023/05/07 12:45:41;;;;;;;4.53;2.50;;;23.00;57.60;;;;;;4883625;29;20040;-86
2023/05/07 12:48:06;;;;;;;4.95;1.95;;;22.90;56.80;;;;;;4882638;29;20029;-86
2023/05/07 12:50:33;;;;;;;6.05;2.65;;;23.00;56.90;;;;;;4881455;29;20036;-86
2023/05/07 12:52:59;;;;;;;5.53;1.92;;;23.00;57.30;;;;;;4882299;29;20172;-86
2023/05/07 12:55:25;;;;;;;5.38;2.28;;;23.10;57.50;;;;;;4882278;29;20036;-86
2023/05/07 12:57:53;;;;;;;3.45;1.95;;;23.20;57.10;;;;;;4866961;29;20052;-86
2023/05/07 13:00:36;;;;;;;5.25;1.83;;;23.20;56.70;;;;;;4883391;29;20036;-86
2023/05/07 13:03:01;;;;;;;4.40;2.47;;;23.30;57.20;;;;;;4867984;29;20067;-86
2023/05/07 13:05:27;;;;;;;3.80;2.08;;;23.60;55.80;;;;;;4897515;29;20033;-86
2023/05/07 13:07:54;;;;;;;4.45;1.83;;;23.60;56.00;;;;;;4883444;29;20115;-86
2023/05/07 13:10:20;;;;;;;2.85;1.63;;;23.60;55.70;;;;;;4898601;29;20100;-86
2023/05/07 13:12:45;;;;;;;3.70;1.85;;;23.70;56.80;;;;;;4883144;29;20049;-86
2023/05/07 13:15:11;;;;;;;6.25;2.28;;;23.70;56.10;;;;;;4883242;29;20029;-86
2023/05/07 13:17:37;;;;;;;5.80;2.20;;;23.80;55.90;;;;;;4882141;29;20077;-86
2023/05/07 13:20:03;;;;;;;8.48;2.10;;;23.80;56.60;;;;;;4867736;29;20120;-86
2023/05/07 13:22:28;;;;;;;8.13;2.60;;;23.70;57.00;;;;;;4901282;29;20104;-85
2023/05/07 13:24:54;;;;;;;5.95;2.25;;;23.70;56.30;;;;;;4886515;29;20033;-85
2023/05/07 13:27:20;;;;;;;4.40;1.92;;;23.60;56.60;;;;;;4883011;29;20504;-85
2023/05/07 13:29:45;;;;;;;10.32;2.53;;;23.60;55.60;;;;;;4881682;29;20037;-85
2023/05/07 13:32:11;;;;;;;3.72;2.00;;;23.60;56.30;;;;;;4883116;29;20539;-85
2023/05/07 13:34:36;;;;;;;4.95;1.80;;;23.60;55.00;;;;;;4880359;29;20039;-86
2023/05/07 13:37:02;;;;;;;5.20;1.80;;;23.70;55.10;;;;;;4884943;29;20028;-85
2023/05/07 13:39:28;;;;;;;7.40;1.58;;;23.80;55.10;;;;;;4884664;29;20063;-85
2023/05/07 13:41:53;;;;;;;4.10;1.55;;;24.00;56.30;;;;;;4881466;29;20043;-85
2023/05/07 13:44:19;;;;;;;5.60;1.90;;;24.00;55.70;;;;;;4865944;29;20101;-85
2023/05/07 13:46:45;;;;;;;2.25;1.40;;;23.80;54.40;;;;;;4882149;29;20035;-85
2023/05/07 13:49:12;;;;;;;3.65;1.35;;;23.90;55.70;;;;;;4865660;29;20097;-84
2023/05/07 13:51:37;;;;;;;2.05;1.15;;;23.90;55.40;;;;;;4881469;29;20033;-84
2023/05/07 13:54:04;;;;;;;2.45;1.10;;;23.80;54.50;;;;;;4882292;29;20500;-85
2023/05/07 13:56:32;;;;;;;3.90;1.40;;;23.70;54.70;;;;;;4880844;29;20089;-85
2023/05/07 13:58:58;;;;;;;4.07;1.25;;;23.80;55.00;;;;;;4865519;29;20374;-85
2023/05/07 14:01:23;;;;;;;6.30;1.50;;;23.70;54.50;;;;;;4881911;29;20033;-85
2023/05/07 14:03:49;;;;;;;5.35;1.50;;;23.50;55.50;;;;;;4890521;29;20029;-85
2023/05/07 14:06:14;;;;;;;5.03;2.65;;;23.30;55.00;;;;;;4900006;29;20106;-85
2023/05/07 14:08:40;;;;;;;4.15;1.50;;;23.10;55.20;;;;;;4880107;29;20048;-84
2023/05/07 14:11:06;;;;;;;4.25;1.42;;;22.90;55.30;;;;;;4891346;29;20488;-85
2023/05/07 14:13:32;;;;;;;4.07;1.50;;;22.90;56.70;;;;;;4880570;29;20041;-85
2023/05/07 14:15:58;;;;;;;5.15;1.58;;;22.70;56.20;;;;;;4881711;29;20044;-84
2023/05/07 14:18:23;;;;;;;3.88;1.27;;;22.60;57.00;;;;;;4881990;29;20041;-84
2023/05/07 14:20:49;;;;;;;3.33;1.17;;;22.70;57.50;;;;;;4865362;29;20750;-85
2023/05/07 14:23:17;;;;;;;4.30;1.77;;;22.70;57.20;;;;;;4882190;29;20533;-85
2023/05/07 14:25:43;;;;;;;5.57;1.70;;;22.70;57.60;;;;;;4865894;29;20025;-85
2023/05/07 14:28:09;;;;;;;1.83;1.13;;;22.70;57.60;;;;;;4883290;29;20032;-85
2023/05/07 14:30:34;;;;;;;3.45;1.13;;;22.70;57.30;;;;;;4900408;29;20104;-85
2023/05/07 14:33:00;;;;;;;3.30;1.10;;;22.70;57.40;;;;;;4899407;29;20064;-85
2023/05/07 14:35:26;;;;;;;3.17;1.27;;;22.70;56.90;;;;;;4883978;29;20044;-85
2023/05/07 14:37:51;;;;;;;4.47;0.93;;;22.80;57.00;;;;;;4889426;29;20032;-84
2023/05/07 14:40:17;;;;;;;2.65;1.17;;;22.80;56.10;;;;;;4881945;29;20037;-85
2023/05/07 14:42:42;;;;;;;3.80;1.20;;;22.70;56.50;;;;;;4879600;29;20500;-85
2023/05/07 14:45:09;;;;;;;2.72;1.27;;;22.80;56.40;;;;;;4881631;29;20112;-85
2023/05/07 14:47:35;;;;;;;1.85;1.15;;;22.70;56.20;;;;;;4881869;29;20031;-85
2023/05/07 14:50:00;;;;;;;1.90;0.90;;;22.70;56.60;;;;;;4865177;29;20514;-85
2023/05/07 14:52:26;;;;;;;2.47;1.20;;;22.70;56.90;;;;;;4881621;29;20033;-85
2023/05/07 14:54:52;;;;;;;3.85;1.48;;;22.60;57.50;;;;;;4880372;29;20028;-85
2023/05/07 14:57:19;;;;;;;3.13;1.42;;;22.60;56.80;;;;;;4881769;29;20029;-85
2023/05/07 14:59:45;;;;;;;2.60;1.00;;;22.60;56.30;;;;;;4879295;29;20028;-85
2023/05/07 15:02:11;;;;;;;2.55;1.20;;;22.70;56.30;;;;;;4868429;29;20029;-85
2023/05/07 15:04:45;;;;;;;6.35;1.45;;;22.70;56.10;;;;;;4879936;29;20089;-85
2023/05/07 15:07:14;;;;;;;6.32;1.30;;;22.70;55.50;;;;;;4864971;29;20044;-86
2023/05/07 15:09:43;;;;;;;3.15;1.13;;;22.80;55.80;;;;;;4878404;29;20036;-86
2023/05/07 15:12:09;;;;;;;3.40;1.23;;;22.90;56.00;;;;;;4883583;29;20056;-85
2023/05/07 15:14:35;;;;;;;2.75;0.90;;;23.20;55.80;;;;;;4881355;29;20044;-85
2023/05/07 15:17:00;;;;;;;3.90;1.20;;;23.20;55.60;;;;;;4864943;29;20025;-85
2023/05/07 15:19:28;;;;;;;2.90;1.42;;;23.20;54.50;;;;;;4887205;29;20044;-86
2023/05/07 15:21:57;;;;;;;4.82;1.65;;;23.00;55.20;;;;;;4865025;29;20096;-85
2023/05/07 15:24:23;;;;;;;4.00;1.10;;;22.90;56.10;;;;;;4881415;29;20021;-86
2023/05/07 15:26:49;;;;;;;3.72;1.25;;;22.80;55.90;;;;;;4865593;29;20040;-82
2023/05/07 15:29:14;;;;;;;2.25;1.30;;;22.80;55.70;;;;;;4898602;29;20440;-82
2023/05/07 15:31:40;;;;;;;4.63;1.55;;;22.70;56.30;;;;;;4876554;29;20769;-82
2023/05/07 15:34:06;;;;;;;3.13;1.33;;;22.70;55.50;;;;;;4884584;29;20025;-82
2023/05/07 15:36:32;;;;;;;4.70;1.60;;;22.50;55.80;;;;;;4867973;29;20041;-82
2023/05/07 15:38:58;;;;;;;3.10;1.42;;;22.50;55.40;;;;;;4849642;29;20536;-82
2023/05/07 15:41:24;;;;;;;2.58;1.40;;;22.40;55.80;;;;;;4865013;29;20162;-82
2023/05/07 15:43:52;;;;;;;5.15;1.40;;;22.30;56.50;;;;;;4865704;29;20044;-82
2023/05/07 15:46:24;;;;;;;3.38;1.63;;;22.20;56.00;;;;;;4864609;29;20029;-82
2023/05/07 15:48:50;;;;;;;5.72;1.42;;;22.00;56.60;;;;;;4864640;29;20022;-82
2023/05/07 15:51:19;;;;;;;3.45;1.45;;;21.90;57.20;;;;;;4865152;29;20052;-82
2023/05/07 15:53:46;;;;;;;2.88;1.55;;;21.90;57.60;;;;;;4864576;29;20086;-82
2023/05/07 15:56:11;;;;;;;1.90;1.17;;;22.00;57.80;;;;;;4866032;29;20500;-83
2023/05/07 15:58:37;;;;;;;2.40;1.35;;;21.90;57.20;;;;;;4884125;29;20471;-83
2023/05/07 16:01:04;;;;;;;6.20;1.60;;;22.00;57.60;;;;;;4867704;29;20029;-82
2023/05/07 16:03:30;;;;;;;2.15;1.10;;;22.00;57.50;;;;;;4871777;29;20544;-82
2023/05/07 16:05:59;;;;;;;2.25;1.35;;;22.10;57.40;;;;;;4883541;29;20847;-83
2023/05/07 16:08:25;;;;;;;3.15;1.30;;;22.20;57.10;;;;;;4884413;29;20489;-82
2023/05/07 16:10:51;;;;;;;5.07;1.25;;;22.10;57.00;;;;;;4867488;29;20037;-82
2023/05/07 16:13:18;;;;;;;3.10;0.95;;;22.10;57.50;;;;;;4875593;29;20062;-82
2023/05/07 16:15:47;;;;;;;4.03;1.27;;;22.00;57.30;;;;;;4874004;29;20025;-83
2023/05/07 16:18:16;;;;;;;1.67;1.00;;;22.00;57.60;;;;;;4862190;29;20057;-83
2023/05/07 16:20:42;;;;;;;5.03;2.00;;;21.90;58.00;;;;;;4853289;29;20053;-81
2023/05/07 16:23:09;;;;;;;3.05;1.40;;;21.80;58.30;;;;;;4855532;29;20065;-84
2023/05/07 16:25:34;;;;;;;1.92;1.17;;;21.80;58.40;;;;;;4861343;29;20029;-81
2023/05/07 16:28:00;;;;;;;2.92;1.15;;;21.90;58.20;;;;;;4880104;29;20033;-77
2023/05/07 16:30:26;;;;;;;2.50;1.23;;;22.00;58.10;;;;;;4883603;29;20021;-87
2023/05/07 16:32:52;;;;;;;4.93;2.05;;;22.00;57.80;;;;;;4878717;29;20033;-85
2023/05/07 16:35:17;;;;;;;4.90;1.60;;;22.00;57.80;;;;;;4878296;29;20056;-85
2023/05/07 16:37:43;;;;;;;6.43;2.60;;;21.90;57.90;;;;;;4882148;29;20528;-88
2023/05/07 16:40:09;;;;;;;6.65;2.63;;;21.80;57.80;;;;;;4866256;29;20089;-85
2023/05/07 16:42:35;;;;;;;4.85;2.15;;;21.80;57.70;;;;;;4882810;29;20496;-84
2023/05/07 16:45:03;;;;;;;5.70;2.03;;;21.60;57.80;;;;;;4881767;29;20025;-84
2023/05/07 16:47:29;;;;;;;3.72;1.85;;;21.50;58.30;;;;;;4881971;29;20029;-84
2023/05/07 16:49:54;;;;;;;3.92;2.30;;;21.40;58.80;;;;;;4882013;29;20387;-87
2023/05/07 16:52:20;;;;;;;4.55;1.75;;;21.30;58.80;;;;;;4881051;29;20060;-82
2023/05/07 16:54:46;;;;;;;3.42;1.35;;;21.30;59.30;;;;;;4881833;29;20081;-85
2023/05/07 16:57:12;;;;;;;4.75;1.73;;;21.40;59.60;;;;;;4880745;29;20119;-81
2023/05/07 16:59:37;;;;;;;4.13;1.52;;;21.40;59.80;;;;;;4881322;29;20089;-90
2023/05/07 17:02:03;;;;;;;7.25;1.80;;;21.40;59.70;;;;;;4864760;29;20028;-85
2023/05/07 17:04:31;;;;;;;4.68;2.60;;;21.40;59.80;;;;;;4882428;29;20194;-90
2023/05/07 17:06:57;;;;;;;5.47;3.13;;;21.40;59.70;;;;;;4881153;29;20048;-86
2023/05/07 17:09:23;;;;;;;4.72;1.95;;;21.40;59.70;;;;;;4864221;29;20063;-78
2023/05/07 17:11:49;;;;;;;8.25;2.42;;;21.40;59.60;;;;;;4881869;29;20044;-80
2023/05/07 17:14:14;;;;;;;6.13;2.25;;;21.30;59.70;;;;;;4880068;29;20388;-78
2023/05/07 17:16:40;;;;;;;8.57;3.80;;;21.30;59.70;;;;;;4882143;29;20025;-79
2023/05/07 17:19:06;;;;;;;9.68;3.65;;;21.30;60.20;;;;;;4880175;29;20033;-78
2023/05/07 17:21:31;;;;;;;7.80;3.58;;;21.30;60.00;;;;;;4882616;29;20029;-78
2023/05/07 17:23:57;;;;;;;7.55;2.45;;;21.30;60.20;;;;;;4881859;29;20021;-80
2023/05/07 17:26:23;;;;;;;6.05;2.08;;;21.40;59.90;;;;;;4880198;29;20029;-78
2023/05/07 17:28:48;;;;;;;7.35;2.60;;;21.30;59.60;;;;;;4883729;29;20025;-84
2023/05/07 17:31:17;;;;;;;7.30;1.75;;;21.30;60.00;;;;;;4864911;29;20063;-89
2023/05/07 17:33:42;;;;;;;7.53;2.33;;;21.10;59.80;;;;;;4900745;29;20472;-86
2023/05/07 17:36:08;;;;;;;5.72;2.00;;;21.00;59.50;;;;;;4895342;29;20092;-84